Estación de Contra Coronel
Ultimos registro cada 15 minutos 68
| N° | Estación | Fecha / Hora | Temperatura | Humedad | Lluvia | Velocidad | Dirección | Radiación | Presion |
| 68 | Contra Coronel | 10-05-2026 16:45 | 15,4 | 70 | 0 | 1,3 | 161 | 138,1 | 1017 |
| 67 | Contra Coronel | 10-05-2026 16:30 | 15,4 | 70,4 | 0 | 1,7 | 168 | 164,4 | 1017 |
| 66 | Contra Coronel | 10-05-2026 16:15 | 15,3 | 70,5 | 0 | 2,3 | 164 | 181,9 | 1017 |
| 65 | Contra Coronel | 10-05-2026 16:00 | 15,6 | 70 | 0 | 2 | 157 | 239,4 | 1017 |
| 64 | Contra Coronel | 10-05-2026 15:45 | 15,6 | 69,5 | 0 | 1,7 | 160 | 271,9 | 1017,1 |
| 63 | Contra Coronel | 10-05-2026 15:30 | 15,4 | 69,3 | 0 | 1,7 | 177 | 300,6 | 1017,2 |
| 62 | Contra Coronel | 10-05-2026 15:15 | 15,3 | 68,7 | 0 | 1,7 | 177 | 291,9 | 1017,2 |
| 61 | Contra Coronel | 10-05-2026 15:00 | 15,2 | 68,3 | 0 | 2 | 174 | 348,1 | 1017,3 |
| 60 | Contra Coronel | 10-05-2026 14:45 | 14,8 | 70,9 | 0 | 1,7 | 152 | 364,4 | 1017,2 |
| 59 | Contra Coronel | 10-05-2026 14:30 | 14,7 | 70 | 0 | 0,7 | 152 | 381,9 | 1017,3 |
| 58 | Contra Coronel | 10-05-2026 14:15 | 14,3 | 72,9 | 0 | 1 | 154 | 395,6 | 1017,6 |
| 57 | Contra Coronel | 10-05-2026 14:00 | 13,6 | 74,5 | 0 | 1 | 167 | 423,1 | 1017,7 |
| 56 | Contra Coronel | 10-05-2026 13:45 | 13,9 | 72,5 | 0 | 0,7 | 239 | 439,4 | 1017,6 |
| 55 | Contra Coronel | 10-05-2026 13:30 | 13,4 | 72,2 | 0 | 1 | 185 | 448,1 | 1017,7 |
| 54 | Contra Coronel | 10-05-2026 13:15 | 14,1 | 69,5 | 0 | 0,7 | 265 | 455,6 | 1018 |
| 53 | Contra Coronel | 10-05-2026 13:00 | 12,3 | 76,5 | 0 | 1,3 | 168 | 456,9 | 1018,1 |
| 52 | Contra Coronel | 10-05-2026 12:45 | 12 | 76,7 | 0 | 0,7 | 174 | 450,6 | 1018,3 |
| 51 | Contra Coronel | 10-05-2026 12:30 | 11,3 | 80,4 | 0 | 1 | 192 | 455,6 | 1018,4 |
| 50 | Contra Coronel | 10-05-2026 12:15 | 11 | 81,5 | 0 | 1 | 178 | 458,1 | 1018,6 |
| 49 | Contra Coronel | 10-05-2026 12:00 | 11,2 | 81,5 | 0 | 0,3 | 184 | 420,6 | 1018,9 |
| 48 | Contra Coronel | 10-05-2026 11:45 | 10,3 | 83,7 | 0 | 0,7 | 157 | 448,1 | 1018,9 |
| 47 | Contra Coronel | 10-05-2026 11:30 | 9,8 | 86,4 | 0 | 1 | 145 | 518,1 | 1019,1 |
| 46 | Contra Coronel | 10-05-2026 11:15 | 8,5 | 89,7 | 0 | 1,3 | 170 | 246,9 | 1019,3 |
| 45 | Contra Coronel | 10-05-2026 11:00 | 9 | 87,4 | 0 | 2 | 178 | 466,9 | 1019,5 |
| 44 | Contra Coronel | 10-05-2026 10:45 | 9 | 88,4 | 0 | 1,7 | 173 | 368,1 | 1019,5 |
| 43 | Contra Coronel | 10-05-2026 10:30 | 8,3 | 90,7 | 0 | 2 | 170 | 138,1 | 1019,6 |
| 42 | Contra Coronel | 10-05-2026 10:15 | 8,3 | 92,5 | 0 | 1,3 | 183 | 334,4 | 1019,7 |
| 41 | Contra Coronel | 10-05-2026 10:00 | 8,5 | 92,5 | 0 | 1 | 194 | 353,1 | 1019,8 |
| 40 | Contra Coronel | 10-05-2026 09:45 | 7,2 | 98,8 | 0 | 0 | 4 | 254,4 | 1019,7 |
| 39 | Contra Coronel | 10-05-2026 09:30 | 5,5 | 100 | 0 | 0 | 170 | 211,9 | 1019,6 |
| 38 | Contra Coronel | 10-05-2026 09:15 | 3,1 | 100 | 0 | 0 | 170 | 184,4 | 1019,5 |
| 37 | Contra Coronel | 10-05-2026 09:00 | 1,4 | 100 | 0 | 0 | 170 | 85,6 | 1019,2 |
| 36 | Contra Coronel | 10-05-2026 08:45 | 0,5 | 100 | 0 | 0 | 170 | 24,4 | 1019,2 |
| 35 | Contra Coronel | 10-05-2026 08:30 | 0,2 | 100 | 0 | 0 | 187 | 24,4 | 1019,2 |
| 34 | Contra Coronel | 10-05-2026 08:15 | 0,3 | 99,9 | 0 | 0 | 187 | 15,6 | 1019,1 |
| 33 | Contra Coronel | 10-05-2026 08:00 | 0 | 100 | 0 | 0 | 185 | 6,9 | 1019,2 |
| 32 | Contra Coronel | 10-05-2026 07:45 | -0,1 | 99,7 | 0 | 0 | 185 | 1,9 | 1019,3 |
| 31 | Contra Coronel | 10-05-2026 07:30 | 0,2 | 99,9 | 0 | 0 | 185 | 0,6 | 1019,2 |
| 30 | Contra Coronel | 10-05-2026 07:15 | 0 | 99,7 | 0 | 0 | 185 | 0,6 | 1019,3 |
| 29 | Contra Coronel | 10-05-2026 07:00 | 1 | 99,6 | 0 | 0 | 185 | 0,6 | 1019,4 |
| 28 | Contra Coronel | 10-05-2026 06:45 | 0,7 | 99,8 | 0 | 0 | 185 | 0,6 | 1019,5 |
| 27 | Contra Coronel | 10-05-2026 06:30 | 0,8 | 99,7 | 0 | 0 | 185 | 0,6 | 1019,5 |
| 26 | Contra Coronel | 10-05-2026 06:15 | 0,7 | 99,5 | 0 | 0 | 185 | 0,6 | 1019,4 |
| 25 | Contra Coronel | 10-05-2026 06:00 | 1,1 | 99,6 | 0 | 0 | 185 | 0,6 | 1019,3 |
| 24 | Contra Coronel | 10-05-2026 05:45 | 1,2 | 99,6 | 0 | 0 | 185 | 0,6 | 1019,2 |
| 23 | Contra Coronel | 10-05-2026 05:30 | 1 | 99,5 | 0 | 0 | 185 | 0,6 | 1019,2 |
| 22 | Contra Coronel | 10-05-2026 05:15 | 0,9 | 99,4 | 0 | 0 | 185 | 0,6 | 1019,2 |
| 21 | Contra Coronel | 10-05-2026 05:00 | 0,8 | 99,3 | 0 | 0 | 185 | 0,6 | 1019,2 |
| 20 | Contra Coronel | 10-05-2026 04:45 | 0,2 | 98,9 | 0 | 0 | 185 | 0,6 | 1019,1 |
| 19 | Contra Coronel | 10-05-2026 04:30 | 1,1 | 99,1 | 0 | 0 | 185 | 0,6 | 1019,3 |
| 18 | Contra Coronel | 10-05-2026 04:15 | 1,6 | 99,1 | 0 | 0 | 185 | 0,6 | 1019,3 |
| 17 | Contra Coronel | 10-05-2026 04:00 | 1,1 | 99,3 | 0 | 0 | 185 | 0,6 | 1019,2 |
| 16 | Contra Coronel | 10-05-2026 03:45 | 1,7 | 98,6 | 0 | 0 | 185 | 0,6 | 1019,4 |
| 15 | Contra Coronel | 10-05-2026 03:30 | 2,5 | 98,6 | 0 | 0 | 185 | 0,6 | 1019,3 |
| 14 | Contra Coronel | 10-05-2026 03:15 | 2,7 | 98,7 | 0 | 0 | 185 | 0,6 | 1019,3 |
| 13 | Contra Coronel | 10-05-2026 03:00 | 3 | 98,9 | 0 | 0 | 208 | 0,6 | 1019,5 |
| 12 | Contra Coronel | 10-05-2026 02:45 | 2,1 | 98,7 | 0 | 0 | 225 | 0,6 | 1019,6 |
| 11 | Contra Coronel | 10-05-2026 02:30 | 2,8 | 98,6 | 0 | 0 | 239 | 0,6 | 1019,7 |
| 10 | Contra Coronel | 10-05-2026 02:15 | 1,9 | 98,4 | 0 | 0 | 239 | 0,6 | 1019,8 |
| 9 | Contra Coronel | 10-05-2026 02:00 | 2,5 | 98,5 | 0 | 0 | 239 | 0,6 | 1019,9 |
| 8 | Contra Coronel | 10-05-2026 01:45 | 2,1 | 98,4 | 0 | 0 | 239 | 0,6 | 1019,8 |
| 7 | Contra Coronel | 10-05-2026 01:30 | 2,3 | 98,3 | 0 | 0 | 239 | 0,6 | 1019,9 |
| 6 | Contra Coronel | 10-05-2026 01:15 | 2,5 | 98,3 | 0 | 0 | 253 | 0,6 | 1019,8 |
| 5 | Contra Coronel | 10-05-2026 01:00 | 2,4 | 98 | 0 | 0 | 253 | 0,6 | 1019,8 |
| 4 | Contra Coronel | 10-05-2026 00:45 | 3,2 | 98 | 0 | 0 | 253 | 0,6 | 1020,1 |
| 3 | Contra Coronel | 10-05-2026 00:30 | 2,8 | 97,8 | 0 | 0 | 234 | 0,6 | 1020,2 |
| 2 | Contra Coronel | 10-05-2026 00:15 | 3,1 | 97,7 | 0 | 0 | 234 | 0,6 | 1020,3 |
| 1 | Contra Coronel | 10-05-2026 00:00 | 3,1 | 97,4 | 0 | 0 | 234 | 0,6 | 1020,5 |